Time;durP1;ratioP1;P1;durP2;ratioP2;P2;SDS_P1;SDS_P2;PMS_P1;PMS_P2;Temp;Humidity;BMP_temperature;BMP_pressure;BME280_temperature;BME280_humidity;BME280_pressure;Samples;Min_cycle;Max_cycle;Signal;HPM_P1;HPM_P2
2022/10/22 00:01:13;;;;;;;0.30;0.10;;;14.00;99.90;;;;;;5037229;28;20456;-76
2022/10/22 00:03:40;;;;;;;0.43;0.10;;;13.90;99.90;;;;;;5034374;28;20526;-77
2022/10/22 00:06:07;;;;;;;0.30;0.10;;;13.80;99.90;;;;;;5037488;28;20444;-76
2022/10/22 00:08:36;;;;;;;0.20;0.10;;;13.70;99.90;;;;;;5035637;28;20460;-76
2022/10/22 00:11:09;;;;;;;1.13;0.10;;;13.70;99.90;;;;;;5038109;28;20456;-76
2022/10/22 00:13:36;;;;;;;0.30;0.10;;;13.70;99.90;;;;;;5035395;28;20898;-76
2022/10/22 00:16:03;;;;;;;0.40;0.10;;;13.70;99.90;;;;;;5038262;28;20561;-76
2022/10/22 00:18:30;;;;;;;0.83;0.10;;;13.60;99.90;;;;;;5035560;28;20777;-76
2022/10/22 00:20:57;;;;;;;0.23;0.10;;;13.60;99.90;;;;;;5038157;28;20444;-76
2022/10/22 00:23:24;;;;;;;0.50;0.10;;;13.60;99.90;;;;;;5035672;28;20518;-76
2022/10/22 00:25:53;;;;;;;0.40;0.10;;;13.60;99.90;;;;;;5038013;28;20486;-76
2022/10/22 00:28:20;;;;;;;0.67;0.10;;;13.60;99.90;;;;;;5035000;28;20460;-76
2022/10/22 00:30:47;;;;;;;0.30;0.10;;;13.60;99.90;;;;;;5037880;28;20514;-76
2022/10/22 00:33:14;;;;;;;0.60;0.10;;;13.50;99.90;;;;;;5035121;28;20740;-76
2022/10/22 00:35:41;;;;;;;2.63;0.20;;;13.60;99.90;;;;;;5038134;28;20448;-76
2022/10/22 00:38:08;;;;;;;2.13;0.10;;;13.70;99.90;;;;;;5035256;28;20448;-76
2022/10/22 00:40:35;;;;;;;0.30;0.10;;;13.80;99.90;;;;;;5037689;28;20448;-76
2022/10/22 00:43:03;;;;;;;0.50;0.10;;;13.80;99.90;;;;;;5034280;28;20507;-76
2022/10/22 00:45:30;;;;;;;0.37;0.10;;;13.70;99.90;;;;;;5037879;28;20752;-77
2022/10/22 00:48:01;;;;;;;0.40;0.10;;;13.90;99.90;;;;;;5034176;28;20884;-76
2022/10/22 00:50:32;;;;;;;0.30;0.10;;;13.90;99.90;;;;;;5038276;28;20677;-76
2022/10/22 00:53:01;;;;;;;0.20;0.10;;;13.90;99.90;;;;;;5034917;28;20526;-76
2022/10/22 00:55:29;;;;;;;0.40;0.20;;;13.90;99.90;;;;;;5037786;28;20806;-76
2022/10/22 00:57:58;;;;;;;0.30;0.10;;;13.90;99.90;;;;;;5034177;28;20480;-76
2022/10/22 01:00:26;;;;;;;0.53;0.10;;;13.80;99.90;;;;;;5037809;28;20449;-76
2022/10/22 01:02:55;;;;;;;2.97;0.20;;;13.80;99.90;;;;;;5034588;28;20539;-76
2022/10/22 01:05:22;;;;;;;0.53;0.20;;;13.70;99.90;;;;;;5037196;28;20445;-76
2022/10/22 01:07:51;;;;;;;0.30;0.10;;;13.70;99.90;;;;;;5037752;28;20777;-76
2022/10/22 01:10:28;;;;;;;0.93;0.10;;;13.60;99.90;;;;;;5037351;28;20456;-76
2022/10/22 01:13:08;;;;;;;0.30;0.20;;;13.60;99.90;;;;;;5035050;28;20530;-76
2022/10/22 01:15:43;;;;;;;0.30;0.10;;;13.60;99.90;;;;;;5037348;28;20448;-76
2022/10/22 01:18:17;;;;;;;0.30;0.10;;;13.60;99.90;;;;;;5034735;28;20923;-77
2022/10/22 01:20:58;;;;;;;0.70;0.10;;;13.70;99.90;;;;;;5037501;28;20456;-76
2022/10/22 01:23:51;;;;;;;0.70;0.10;;;13.70;99.90;;;;;;5034638;28;20549;-76
2022/10/22 01:26:27;;;;;;;0.40;0.10;;;13.70;99.90;;;;;;5037208;28;20801;-76
2022/10/22 01:29:01;;;;;;;1.90;0.20;;;13.70;99.90;;;;;;5034567;28;20448;-77
2022/10/22 01:31:32;;;;;;;0.40;0.17;;;13.70;99.90;;;;;;5037071;28;20862;-77
2022/10/22 01:34:00;;;;;;;1.70;0.17;;;13.70;99.90;;;;;;5034095;28;20464;-77
2022/10/22 01:36:30;;;;;;;0.30;0.10;;;13.80;99.90;;;;;;5037337;28;20483;-77
2022/10/22 01:38:58;;;;;;;0.60;0.20;;;13.70;99.90;;;;;;5034759;28;20498;-76
2022/10/22 01:41:28;;;;;;;0.30;0.10;;;13.80;99.90;;;;;;5037345;28;20814;-77
2022/10/22 01:43:55;;;;;;;0.40;0.20;;;13.70;99.90;;;;;;5032484;28;20500;-76
2022/10/22 01:46:25;;;;;;;0.30;0.10;;;13.80;99.90;;;;;;5034977;28;20522;-76
2022/10/22 01:49:07;;;;;;;0.30;0.10;;;13.90;99.90;;;;;;5032597;28;20578;-76
2022/10/22 01:51:45;;;;;;;0.67;0.20;;;14.00;99.90;;;;;;5035267;28;20510;-76
2022/10/22 01:54:25;;;;;;;0.30;0.10;;;14.00;99.90;;;;;;5033270;28;20460;-76
2022/10/22 01:57:04;;;;;;;0.30;0.10;;;13.90;99.90;;;;;;5035063;28;20542;-76
2022/10/22 01:59:41;;;;;;;0.93;0.10;;;13.90;99.90;;;;;;5034892;28;20763;-76
2022/10/22 02:02:15;;;;;;;0.33;0.20;;;13.80;99.90;;;;;;5037318;28;20451;-76
2022/10/22 02:04:49;;;;;;;0.40;0.20;;;13.90;99.90;;;;;;5035101;28;20786;-76
2022/10/22 02:07:21;;;;;;;0.30;0.10;;;13.80;99.90;;;;;;5037035;28;20444;-76
2022/10/22 02:09:50;;;;;;;0.40;0.13;;;13.90;99.90;;;;;;5034312;28;20514;-76
2022/10/22 02:12:20;;;;;;;0.30;0.10;;;13.90;99.90;;;;;;5037096;28;20514;-76
2022/10/22 02:14:50;;;;;;;0.30;0.10;;;13.90;99.90;;;;;;5034766;28;20460;-76
2022/10/22 02:17:21;;;;;;;0.60;0.10;;;13.90;99.90;;;;;;5037364;28;20545;-76
2022/10/22 02:19:53;;;;;;;1.27;0.10;;;14.00;99.90;;;;;;5036701;28;20912;-76
2022/10/22 02:22:20;;;;;;;0.77;0.10;;;14.00;99.90;;;;;;5036479;28;20448;-77
2022/10/22 02:24:49;;;;;;;0.50;0.10;;;13.90;99.90;;;;;;5035977;28;20510;-76
2022/10/22 02:27:22;;;;;;;0.47;0.20;;;13.90;99.90;;;;;;5036622;28;20452;-76
2022/10/22 02:29:55;;;;;;;2.30;0.10;;;13.90;99.90;;;;;;5036600;28;20448;-76
2022/10/22 02:32:28;;;;;;;0.30;0.10;;;13.90;99.90;;;;;;5037262;28;20440;-76
2022/10/22 02:34:56;;;;;;;0.40;0.13;;;13.90;99.90;;;;;;5033690;28;20950;-76
2022/10/22 02:37:25;;;;;;;0.40;0.20;;;13.90;99.90;;;;;;5036286;28;20488;-76
2022/10/22 02:39:55;;;;;;;0.37;0.20;;;13.80;99.90;;;;;;5033843;28;20452;-75
2022/10/22 02:42:23;;;;;;;0.30;0.10;;;13.70;99.90;;;;;;5036743;28;20507;-76
2022/10/22 02:44:50;;;;;;;0.53;0.10;;;13.70;99.90;;;;;;5037639;28;20487;-76
2022/10/22 02:47:16;;;;;;;0.50;0.10;;;13.70;99.90;;;;;;5040442;28;20452;-76
2022/10/22 02:49:45;;;;;;;0.53;0.10;;;13.70;99.90;;;;;;5040758;28;20448;-76
2022/10/22 02:52:12;;;;;;;0.30;0.10;;;13.80;99.90;;;;;;5038518;28;20455;-76
2022/10/22 02:54:39;;;;;;;0.40;0.10;;;13.70;99.90;;;;;;5040194;28;20452;-76
2022/10/22 02:57:06;;;;;;;0.30;0.10;;;13.90;99.90;;;;;;5037452;28;20483;-76
2022/10/22 02:59:33;;;;;;;0.30;0.10;;;13.90;99.90;;;;;;5038620;28;20475;-76
2022/10/22 03:02:00;;;;;;;0.30;0.10;;;13.90;99.90;;;;;;5037407;28;20456;-76
2022/10/22 03:04:27;;;;;;;0.20;0.10;;;13.80;99.90;;;;;;5039616;28;20820;-76
2022/10/22 03:06:55;;;;;;;0.33;0.20;;;13.80;99.90;;;;;;5036636;28;20452;-76
2022/10/22 03:09:22;;;;;;;0.30;0.20;;;13.90;99.90;;;;;;5039830;28;20448;-76
2022/10/22 03:11:49;;;;;;;0.30;0.10;;;13.90;99.90;;;;;;5040081;28;20510;-76
2022/10/22 03:14:17;;;;;;;0.40;0.10;;;13.90;99.90;;;;;;5039788;28;20771;-76
2022/10/22 03:16:44;;;;;;;0.30;0.10;;;13.90;99.90;;;;;;5035777;28;20554;-76
2022/10/22 03:19:11;;;;;;;1.17;0.20;;;13.90;99.90;;;;;;5039273;28;21018;-76
2022/10/22 03:21:42;;;;;;;0.60;0.20;;;13.80;99.90;;;;;;5035761;28;20456;-76
2022/10/22 03:24:14;;;;;;;0.67;0.10;;;13.80;99.90;;;;;;5034742;28;20452;-76
2022/10/22 03:26:42;;;;;;;3.40;0.20;;;13.80;99.90;;;;;;5032710;28;20526;-76
2022/10/22 03:29:11;;;;;;;0.50;0.17;;;13.80;99.90;;;;;;5035320;28;20475;-75
2022/10/22 03:31:38;;;;;;;0.30;0.10;;;13.80;99.90;;;;;;5032731;28;20514;-76
2022/10/22 03:34:05;;;;;;;1.07;0.10;;;13.80;99.90;;;;;;5035566;28;20499;-76
2022/10/22 03:36:33;;;;;;;0.30;0.17;;;13.70;99.90;;;;;;5036293;28;20514;-76
2022/10/22 03:39:01;;;;;;;0.30;0.10;;;13.70;99.90;;;;;;5037874;28;20480;-76
2022/10/22 03:41:29;;;;;;;0.40;0.10;;;13.70;99.90;;;;;;5035361;28;20456;-76
2022/10/22 03:43:56;;;;;;;0.30;0.10;;;13.70;99.90;;;;;;5038286;28;20723;-76
2022/10/22 03:46:24;;;;;;;0.80;0.10;;;13.70;99.90;;;;;;5034876;28;20690;-76
2022/10/22 03:48:50;;;;;;;0.40;0.10;;;13.70;99.90;;;;;;5039206;28;20444;-76
2022/10/22 03:51:17;;;;;;;2.03;0.20;;;13.70;99.90;;;;;;5034889;28;20460;-76
2022/10/22 03:53:44;;;;;;;0.30;0.20;;;13.70;99.90;;;;;;5037275;28;20904;-76
2022/10/22 03:56:13;;;;;;;0.30;0.10;;;13.70;99.90;;;;;;5034201;28;20514;-76
2022/10/22 03:58:41;;;;;;;0.30;0.10;;;13.70;99.90;;;;;;5037158;28;20982;-76
2022/10/22 04:01:10;;;;;;;0.50;0.20;;;13.70;99.90;;;;;;5034654;28;20510;-76
2022/10/22 04:03:38;;;;;;;0.60;0.20;;;13.80;99.90;;;;;;5037398;28;20448;-76
2022/10/22 04:06:07;;;;;;;0.40;0.10;;;13.80;99.90;;;;;;5034743;28;20452;-76
2022/10/22 04:08:35;;;;;;;0.30;0.10;;;13.80;99.90;;;;;;5035624;28;20499;-76
2022/10/22 04:11:02;;;;;;;0.40;0.20;;;13.80;99.90;;;;;;5033583;28;20464;-76
2022/10/22 04:13:28;;;;;;;2.00;0.20;;;13.80;99.90;;;;;;5036532;28;20860;-76
2022/10/22 04:16:07;;;;;;;0.30;0.10;;;13.80;99.90;;;;;;5034419;28;20488;-76
2022/10/22 04:18:34;;;;;;;0.30;0.10;;;13.80;99.90;;;;;;5037247;28;20488;-76
2022/10/22 04:21:01;;;;;;;0.50;0.17;;;13.70;99.90;;;;;;5035482;28;20499;-76
2022/10/22 04:23:28;;;;;;;0.30;0.20;;;13.70;99.90;;;;;;5038222;28;20456;-76
2022/10/22 04:25:58;;;;;;;0.50;0.20;;;13.70;99.90;;;;;;5036262;28;20456;-76
2022/10/22 04:28:25;;;;;;;0.40;0.10;;;13.70;99.90;;;;;;5038571;28;20444;-76
2022/10/22 04:30:52;;;;;;;0.33;0.10;;;13.90;99.90;;;;;;5036241;28;20514;-76
2022/10/22 04:33:20;;;;;;;0.30;0.10;;;13.90;99.90;;;;;;5038512;28;20510;-76
2022/10/22 04:35:47;;;;;;;0.30;0.10;;;13.90;99.90;;;;;;5035516;28;20800;-76
2022/10/22 04:38:14;;;;;;;0.30;0.10;;;13.90;99.90;;;;;;5037937;28;20538;-76
2022/10/22 04:40:41;;;;;;;0.87;0.20;;;14.00;99.90;;;;;;5035817;28;20534;-76
2022/10/22 04:43:08;;;;;;;0.30;0.10;;;14.00;99.90;;;;;;5037782;28;20448;-76
2022/10/22 04:45:36;;;;;;;1.43;0.20;;;14.00;99.90;;;;;;5035382;28;20888;-76
2022/10/22 04:48:03;;;;;;;0.30;0.10;;;14.00;99.90;;;;;;5037617;28;20875;-76
2022/10/22 04:50:31;;;;;;;0.40;0.20;;;14.20;99.90;;;;;;5034372;28;20452;-76
2022/10/22 04:52:58;;;;;;;0.30;0.10;;;14.10;99.90;;;;;;5038181;28;20519;-76
2022/10/22 04:55:25;;;;;;;0.63;0.10;;;14.10;99.90;;;;;;5036535;28;20518;-76
2022/10/22 04:57:52;;;;;;;0.20;0.10;;;14.10;99.90;;;;;;5037218;28;20541;-76
2022/10/22 05:00:19;;;;;;;0.30;0.10;;;14.20;99.90;;;;;;5034647;28;20550;-76
2022/10/22 05:02:49;;;;;;;0.60;0.10;;;14.20;99.90;;;;;;5037431;28;20453;-76
2022/10/22 05:05:16;;;;;;;0.30;0.10;;;14.20;99.90;;;;;;5034748;28;20456;-75
2022/10/22 05:07:45;;;;;;;0.77;0.10;;;14.20;99.90;;;;;;5036118;28;20502;-76
2022/10/22 05:10:11;;;;;;;0.30;0.10;;;14.30;99.90;;;;;;5034292;28;20517;-75
2022/10/22 05:12:38;;;;;;;0.30;0.10;;;14.20;99.90;;;;;;5035751;28;20448;-75
2022/10/22 05:15:06;;;;;;;0.50;0.20;;;14.20;99.90;;;;;;5032476;28;20784;-75
2022/10/22 05:17:36;;;;;;;0.37;0.10;;;14.20;99.90;;;;;;5035932;28;20546;-75
2022/10/22 05:20:03;;;;;;;0.30;0.10;;;14.10;99.90;;;;;;5033065;28;20448;-76
2022/10/22 05:22:30;;;;;;;0.67;0.10;;;14.10;99.90;;;;;;5035920;28;20448;-76
2022/10/22 05:24:59;;;;;;;0.83;0.13;;;14.30;99.90;;;;;;5034004;28;20747;-76
2022/10/22 05:27:26;;;;;;;0.30;0.10;;;14.30;99.90;;;;;;5037005;28;20453;-76
2022/10/22 05:29:54;;;;;;;0.30;0.10;;;14.40;99.90;;;;;;5034274;28;20471;-75
2022/10/22 05:32:21;;;;;;;0.30;0.10;;;14.40;99.90;;;;;;5036620;28;20452;-76
2022/10/22 05:34:48;;;;;;;0.40;0.10;;;14.40;99.90;;;;;;5036919;28;20451;-76
2022/10/22 05:37:15;;;;;;;0.30;0.10;;;14.50;99.90;;;;;;5034913;28;20456;-76
2022/10/22 05:39:42;;;;;;;0.40;0.10;;;14.40;99.90;;;;;;5037273;28;20448;-76
2022/10/22 05:42:10;;;;;;;0.30;0.10;;;14.50;99.90;;;;;;5034467;28;20815;-76
2022/10/22 05:44:39;;;;;;;0.47;0.20;;;14.50;99.90;;;;;;5037421;28;20453;-76
2022/10/22 05:47:06;;;;;;;0.30;0.10;;;14.60;99.90;;;;;;5034695;28;20524;-76
2022/10/22 05:49:33;;;;;;;0.40;0.20;;;14.50;99.90;;;;;;5036982;28;20805;-76
2022/10/22 05:52:00;;;;;;;0.30;0.10;;;14.40;99.90;;;;;;5034843;28;20463;-76
2022/10/22 05:54:27;;;;;;;0.30;0.10;;;14.40;99.90;;;;;;5036053;28;20456;-74
2022/10/22 05:56:54;;;;;;;0.30;0.10;;;14.30;99.90;;;;;;5033775;28;20529;-76
2022/10/22 05:59:22;;;;;;;0.30;0.20;;;14.30;99.90;;;;;;5036268;28;20514;-76
2022/10/22 06:01:49;;;;;;;0.80;0.13;;;14.30;99.90;;;;;;5032655;28;20452;-76
2022/10/22 06:04:16;;;;;;;1.20;0.67;;;14.30;99.90;;;;;;5034719;28;20452;-76
2022/10/22 06:06:45;;;;;;;0.50;0.20;;;14.30;99.90;;;;;;5033362;28;20545;-76
2022/10/22 06:09:17;;;;;;;2.50;0.30;;;14.30;99.90;;;;;;5037530;28;20452;-76
2022/10/22 06:11:44;;;;;;;0.40;0.10;;;14.20;99.90;;;;;;5032556;28;20451;-76
2022/10/22 06:14:11;;;;;;;0.30;0.20;;;14.20;99.90;;;;;;5045573;28;20457;-76
2022/10/22 06:16:40;;;;;;;0.30;0.20;;;14.20;99.90;;;;;;5034224;28;20476;-77
2022/10/22 06:19:09;;;;;;;0.30;0.10;;;14.20;99.90;;;;;;5038702;28;20595;-79
2022/10/22 06:21:36;;;;;;;0.40;0.20;;;14.30;99.90;;;;;;5040549;28;20450;-77
2022/10/22 06:24:04;;;;;;;0.40;0.10;;;14.30;99.90;;;;;;5057953;28;20436;-76
2022/10/22 06:26:31;;;;;;;0.40;0.13;;;14.20;99.90;;;;;;5045051;28;20486;-75
2022/10/22 06:28:59;;;;;;;0.37;0.10;;;14.20;99.90;;;;;;5060632;28;20443;-76
2022/10/22 06:31:27;;;;;;;0.40;0.13;;;14.10;99.90;;;;;;5042609;28;20529;-76
2022/10/22 06:33:56;;;;;;;0.40;0.10;;;14.10;99.90;;;;;;5055131;28;20743;-76
2022/10/22 06:36:24;;;;;;;0.50;0.20;;;14.00;99.90;;;;;;5043128;28;20522;-76
2022/10/22 06:38:53;;;;;;;0.30;0.20;;;13.90;99.90;;;;;;5044122;28;20491;-75
2022/10/22 06:41:20;;;;;;;0.40;0.10;;;13.90;99.90;;;;;;5049313;28;20471;-74
2022/10/22 06:43:47;;;;;;;0.40;0.20;;;13.90;99.90;;;;;;5032104;28;20524;-75
2022/10/22 06:46:17;;;;;;;0.40;0.10;;;13.80;99.90;;;;;;5053419;28;20515;-75
2022/10/22 06:48:48;;;;;;;1.80;0.20;;;13.80;99.90;;;;;;5033963;28;20452;-75
2022/10/22 06:51:17;;;;;;;0.40;0.10;;;13.90;99.90;;;;;;5019727;28;20445;-76
2022/10/22 06:53:44;;;;;;;0.30;0.10;;;13.90;99.90;;;;;;5051223;28;20506;-75
2022/10/22 06:56:14;;;;;;;0.40;0.20;;;14.00;99.90;;;;;;5037657;28;20923;-75
2022/10/22 06:58:41;;;;;;;0.30;0.13;;;14.10;99.90;;;;;;5036323;28;20487;-76
2022/10/22 07:01:09;;;;;;;1.90;0.10;;;14.10;99.90;;;;;;5034492;28;20456;-75
2022/10/22 07:03:37;;;;;;;0.40;0.10;;;14.30;99.90;;;;;;5038661;28;20510;-76
2022/10/22 07:06:07;;;;;;;0.60;0.10;;;14.30;99.90;;;;;;5048723;28;20904;-75
2022/10/22 07:08:36;;;;;;;0.30;0.10;;;14.30;99.90;;;;;;5046577;28;20580;-75
2022/10/22 07:11:07;;;;;;;0.30;0.20;;;14.30;99.90;;;;;;5044127;28;20444;-75
2022/10/22 07:13:36;;;;;;;0.37;0.10;;;14.40;99.90;;;;;;5051264;28;20821;-75
2022/10/22 07:16:04;;;;;;;0.30;0.10;;;14.50;99.90;;;;;;5028158;28;20476;-75
2022/10/22 07:18:32;;;;;;;0.30;0.10;;;14.50;99.90;;;;;;5037436;28;20538;-75
2022/10/22 07:20:59;;;;;;;0.30;0.10;;;14.50;99.90;;;;;;5045985;28;20460;-75
2022/10/22 07:23:27;;;;;;;0.30;0.10;;;14.60;99.90;;;;;;5055380;28;20470;-76
2022/10/22 07:25:55;;;;;;;0.30;0.10;;;14.60;99.90;;;;;;5037381;28;20460;-75
2022/10/22 07:28:22;;;;;;;1.83;0.20;;;14.80;99.90;;;;;;5052467;28;20450;-75
2022/10/22 07:30:49;;;;;;;0.50;0.20;;;14.90;99.90;;;;;;5044592;28;20472;-76
2022/10/22 07:33:16;;;;;;;0.30;0.10;;;15.00;99.90;;;;;;5046172;28;20453;-76
2022/10/22 07:35:43;;;;;;;0.53;0.20;;;14.90;99.90;;;;;;5041081;28;20461;-76
2022/10/22 07:38:11;;;;;;;0.30;0.10;;;14.90;99.90;;;;;;5045817;28;20504;-77
2022/10/22 07:40:38;;;;;;;0.33;0.20;;;15.00;99.90;;;;;;5044908;28;20994;-76
2022/10/22 07:43:06;;;;;;;0.30;0.10;;;14.80;99.90;;;;;;5045279;28;20803;-77
2022/10/22 07:45:33;;;;;;;0.40;0.10;;;14.80;99.90;;;;;;5044764;28;20467;-76
2022/10/22 07:48:01;;;;;;;0.40;0.10;;;14.90;99.90;;;;;;5034594;28;20448;-76
2022/10/22 07:50:28;;;;;;;0.40;0.10;;;15.00;99.90;;;;;;5035424;28;20455;-76
2022/10/22 07:52:55;;;;;;;0.30;0.20;;;15.00;99.90;;;;;;5029743;28;20456;-75
2022/10/22 07:55:22;;;;;;;0.30;0.10;;;15.00;99.90;;;;;;5050324;28;20952;-76
2022/10/22 07:57:49;;;;;;;0.30;0.20;;;15.00;99.90;;;;;;5041791;28;20475;-75
2022/10/22 08:00:19;;;;;;;0.37;0.10;;;15.00;99.90;;;;;;5048004;28;20487;-76
2022/10/22 08:02:46;;;;;;;0.30;0.10;;;14.90;99.90;;;;;;5042486;28;21384;-75
2022/10/22 08:05:13;;;;;;;0.60;0.20;;;14.90;99.90;;;;;;5038965;28;20534;-74
2022/10/22 08:07:42;;;;;;;0.30;0.10;;;15.00;99.90;;;;;;5040610;28;20453;-74
2022/10/22 08:10:10;;;;;;;1.17;0.20;;;15.00;99.90;;;;;;5011163;28;20464;-74
2022/10/22 08:12:38;;;;;;;0.30;0.20;;;15.10;99.90;;;;;;5054157;28;20456;-74
2022/10/22 08:15:06;;;;;;;0.40;0.10;;;15.20;99.90;;;;;;5027747;28;20443;-74
2022/10/22 08:17:35;;;;;;;0.70;0.20;;;15.10;99.90;;;;;;5023432;28;20291;-75
2022/10/22 08:20:02;;;;;;;0.57;0.20;;;15.20;99.90;;;;;;5035736;28;20515;-75
2022/10/22 08:22:29;;;;;;;0.40;0.20;;;15.20;99.90;;;;;;5053237;28;20896;-76
2022/10/22 08:24:56;;;;;;;0.40;0.20;;;15.20;99.90;;;;;;5050134;28;21031;-74
2022/10/22 08:27:23;;;;;;;0.47;0.17;;;15.20;99.90;;;;;;5039364;28;20451;-75
2022/10/22 08:29:51;;;;;;;0.43;0.30;;;15.20;99.90;;;;;;5055430;28;20501;-75
2022/10/22 08:32:18;;;;;;;0.50;0.20;;;15.10;99.90;;;;;;5038156;28;20813;-74
2022/10/22 08:34:46;;;;;;;0.30;0.20;;;15.20;99.90;;;;;;5038963;28;20574;-74
2022/10/22 08:37:13;;;;;;;0.33;0.17;;;15.10;99.90;;;;;;5050729;28;20968;-74
2022/10/22 08:39:40;;;;;;;0.40;0.20;;;15.10;99.90;;;;;;5039914;28;20480;-74
2022/10/22 08:42:25;;;;;;;0.90;0.20;;;15.10;99.90;;;;;;5049535;28;20556;-73
2022/10/22 08:45:03;;;;;;;1.27;0.20;;;15.20;99.90;;;;;;5033818;28;20511;-73
2022/10/22 08:47:51;;;;;;;0.53;0.20;;;15.20;99.90;;;;;;5046970;28;20790;-73
2022/10/22 08:50:25;;;;;;;0.30;0.10;;;15.30;99.90;;;;;;5031695;28;20449;-74
2022/10/22 08:52:57;;;;;;;0.30;0.20;;;15.40;99.90;;;;;;5051525;28;20439;-74
2022/10/22 08:55:25;;;;;;;2.10;0.23;;;15.40;99.90;;;;;;5036620;28;20815;-73
2022/10/22 08:58:00;;;;;;;0.40;0.20;;;15.50;99.90;;;;;;5050501;28;20443;-74
2022/10/22 09:00:36;;;;;;;0.40;0.20;;;15.60;99.90;;;;;;5045938;28;20552;-74
2022/10/22 09:03:19;;;;;;;0.37;0.20;;;15.70;99.90;;;;;;5048101;28;20447;-74
2022/10/22 09:05:56;;;;;;;0.40;0.20;;;15.80;99.90;;;;;;5039347;28;20460;-73
2022/10/22 09:08:23;;;;;;;0.40;0.20;;;15.90;99.90;;;;;;5035666;28;20444;-74
2022/10/22 09:10:55;;;;;;;0.60;0.20;;;16.00;99.90;;;;;;5040335;28;20463;-74
2022/10/22 09:13:23;;;;;;;0.40;0.20;;;16.10;99.90;;;;;;5035177;28;20455;-74
2022/10/22 09:15:55;;;;;;;0.40;0.30;;;16.20;99.90;;;;;;5042195;28;20472;-73
2022/10/22 09:18:33;;;;;;;2.10;0.20;;;16.20;99.90;;;;;;5043253;28;20498;-74
2022/10/22 09:21:10;;;;;;;0.70;0.20;;;16.40;99.90;;;;;;5047891;28;20843;-74
2022/10/22 09:23:44;;;;;;;0.30;0.10;;;16.50;99.90;;;;;;5039172;28;20189;-75
2022/10/22 09:26:14;;;;;;;0.60;0.20;;;16.60;99.90;;;;;;5019437;28;21084;-74
2022/10/22 09:28:42;;;;;;;0.67;0.30;;;16.60;99.90;;;;;;5036727;28;20460;-75
2022/10/22 09:31:14;;;;;;;0.40;0.30;;;16.70;99.90;;;;;;5032626;28;20472;-74
2022/10/22 09:33:43;;;;;;;0.60;0.20;;;16.80;99.90;;;;;;5039274;28;21192;-75
2022/10/22 09:36:17;;;;;;;0.47;0.20;;;16.90;99.90;;;;;;5042542;28;20482;-75
2022/10/22 09:38:48;;;;;;;0.70;0.30;;;17.00;99.90;;;;;;5039156;28;20452;-75
2022/10/22 09:41:16;;;;;;;0.50;0.30;;;17.10;99.90;;;;;;5033501;28;20463;-75
2022/10/22 09:43:43;;;;;;;0.70;0.20;;;17.30;99.90;;;;;;5033554;28;20456;-75
2022/10/22 09:46:17;;;;;;;0.43;0.30;;;17.30;95.00;;;;;;5037990;28;20521;-75
2022/10/22 09:48:48;;;;;;;0.40;0.20;;;17.30;94.00;;;;;;5046977;28;20464;-75
2022/10/22 09:51:20;;;;;;;0.60;0.30;;;17.40;85.30;;;;;;5034887;28;20900;-75
2022/10/22 09:53:54;;;;;;;0.50;0.27;;;17.40;71.60;;;;;;5035969;28;20448;-75
2022/10/22 09:56:34;;;;;;;0.30;0.20;;;17.40;55.70;;;;;;5048282;28;20528;-75
2022/10/22 09:59:01;;;;;;;0.30;0.20;;;17.40;72.40;;;;;;5040432;28;20472;-75
2022/10/22 10:01:32;;;;;;;0.40;0.20;;;17.50;79.70;;;;;;5036897;28;20756;-75
2022/10/22 10:04:03;;;;;;;0.40;0.20;;;17.60;57.20;;;;;;5035350;28;20536;-75
2022/10/22 10:06:34;;;;;;;0.30;0.20;;;17.70;69.20;;;;;;5040742;28;20460;-74
2022/10/22 10:09:04;;;;;;;0.40;0.20;;;17.80;39.20;;;;;;5047062;28;20443;-75
2022/10/22 10:11:42;;;;;;;0.57;0.20;;;17.80;38.50;;;;;;5041783;28;20920;-75
2022/10/22 10:14:16;;;;;;;0.47;0.20;;;17.90;52.50;;;;;;5049701;28;20458;-75
2022/10/22 10:16:53;;;;;;;0.63;0.30;;;18.00;23.80;;;;;;5046460;28;20482;-75
2022/10/22 10:19:33;;;;;;;1.53;0.13;;;18.00;24.70;;;;;;5056496;28;20482;-75
2022/10/22 10:22:13;;;;;;;0.30;0.20;;;18.20;1.00;;;;;;5021218;28;20496;-75
2022/10/22 10:25:00;;;;;;;0.30;0.10;;;18.30;1.00;;;;;;5035902;28;20937;-75
2022/10/22 10:27:33;;;;;;;0.40;0.20;;;18.50;1.00;;;;;;5040045;28;20489;-76
2022/10/22 10:30:05;;;;;;;0.70;0.20;;;18.80;1.00;;;;;;5036379;28;20440;-75
2022/10/22 10:32:59;;;;;;;0.40;0.13;;;19.00;1.00;;;;;;5038271;28;20474;-75
2022/10/22 10:35:29;;;;;;;0.30;0.20;;;19.20;1.00;;;;;;5032816;28;20447;-75
2022/10/22 10:38:12;;;;;;;0.40;0.20;;;19.50;1.00;;;;;;5028323;28;20457;-76
2022/10/22 10:40:48;;;;;;;0.50;0.27;;;19.70;1.00;;;;;;5037937;28;20483;-74
2022/10/22 10:43:22;;;;;;;0.30;0.10;;;19.70;1.00;;;;;;5047390;28;20462;-75
2022/10/22 10:46:01;;;;;;;0.30;0.20;;;19.70;1.00;;;;;;5046287;28;20455;-78
2022/10/22 10:48:50;;;;;;;0.30;0.10;;;19.80;1.00;;;;;;5042693;28;20510;-79
2022/10/22 10:51:45;;;;;;;0.30;0.10;;;20.00;1.00;;;;;;5029190;28;20509;-78
2022/10/22 10:54:28;;;;;;;1.20;0.20;;;20.10;99.90;;;;;;5036523;28;20502;-77
2022/10/22 10:56:58;;;;;;;5.70;3.80;;;20.40;99.90;;;;;;5028600;28;20830;-77
2022/10/22 10:59:40;;;;;;;0.90;0.47;;;20.60;99.90;;;;;;5033832;28;20476;-78
2022/10/22 11:02:33;;;;;;;0.60;0.30;;;20.80;99.90;;;;;;5033902;28;20452;-77
2022/10/22 11:05:39;;;;;;;0.90;0.20;;;20.90;1.00;;;;;;5032305;28;20514;-76
2022/10/22 11:08:11;;;;;;;0.50;0.30;;;20.90;1.00;;;;;;5019440;28;20521;-78
2022/10/22 11:10:45;;;;;;;0.50;0.20;;;20.90;99.90;;;;;;5037399;28;20456;-78
2022/10/22 11:13:18;;;;;;;0.53;0.20;;;21.00;99.90;;;;;;5040113;28;20444;-78
2022/10/22 11:15:50;;;;;;;0.30;0.20;;;21.10;99.90;;;;;;5034234;28;20506;-78
2022/10/22 11:18:22;;;;;;;0.70;0.20;;;21.00;99.90;;;;;;5038623;28;20514;-78
2022/10/22 11:21:01;;;;;;;0.40;0.10;;;21.00;99.90;;;;;;5031794;28;20515;-78
2022/10/22 11:23:33;;;;;;;2.63;0.10;;;20.90;1.00;;;;;;5040675;28;20518;-78
2022/10/22 11:26:06;;;;;;;0.40;0.20;;;21.00;1.00;;;;;;5034976;28;20464;-78
2022/10/22 11:28:40;;;;;;;0.30;0.20;;;21.00;1.00;;;;;;5039275;28;20868;-78
2022/10/22 11:31:13;;;;;;;0.70;0.20;;;21.10;1.00;;;;;;5036716;28;20461;-78
2022/10/22 11:33:48;;;;;;;0.80;0.40;;;21.10;1.00;;;;;;5037078;28;20457;-78
2022/10/22 11:36:21;;;;;;;0.60;0.20;;;21.20;1.00;;;;;;5031869;28;20471;-79
2022/10/22 11:38:48;;;;;;;0.67;0.17;;;21.40;1.00;;;;;;5038888;28;20467;-79
2022/10/22 11:41:19;;;;;;;0.40;0.20;;;21.60;99.90;;;;;;5037007;28;20487;-79
2022/10/22 11:43:59;;;;;;;0.40;0.20;;;21.60;99.90;;;;;;5031895;28;20465;-80
2022/10/22 11:46:35;;;;;;;0.60;0.30;;;21.20;1.00;;;;;;5030926;28;20464;-79
2022/10/22 11:49:17;;;;;;;0.50;0.20;;;21.20;99.90;;;;;;5033926;28;20772;-78
2022/10/22 11:51:46;;;;;;;0.40;0.20;;;21.40;99.90;;;;;;5036437;28;20468;-80
2022/10/22 11:54:30;;;;;;;0.40;0.20;;;21.40;99.90;;;;;;5032848;28;20555;-79
2022/10/22 11:57:18;;;;;;;0.50;0.20;;;21.30;1.00;;;;;;5024089;28;20464;-79
2022/10/22 11:59:50;;;;;;;1.07;0.20;;;21.30;1.00;;;;;;5035233;28;20488;-79
2022/10/22 12:02:30;;;;;;;0.47;0.20;;;21.40;1.00;;;;;;5033056;28;20464;-79
2022/10/22 12:05:42;;;;;;;0.40;0.20;;;21.40;1.00;;;;;;5033777;28;20779;-81
2022/10/22 12:08:26;;;;;;;0.40;0.20;;;21.40;67.10;;;;;;5038236;28;20452;-80
2022/10/22 12:11:16;;;;;;;0.37;0.20;;;21.30;1.00;;;;;;5038978;28;20440;-80
2022/10/22 12:14:18;;;;;;;0.87;0.40;;;21.30;99.90;;;;;;5022676;28;20903;-80
2022/10/22 12:16:52;;;;;;;0.60;0.20;;;21.20;1.00;;;;;;5037306;28;20479;-79
2022/10/22 12:19:27;;;;;;;1.90;0.10;;;21.00;1.00;;;;;;5038616;28;20499;-80
2022/10/22 12:21:56;;;;;;;0.37;0.20;;;21.10;1.00;;;;;;5014981;28;20924;-79
2022/10/22 12:24:25;;;;;;;0.40;0.20;;;21.30;99.90;;;;;;5029251;28;20502;-80
2022/10/22 12:26:52;;;;;;;0.50;0.20;;;21.30;99.90;;;;;;5034822;28;20931;-78
2022/10/22 12:29:24;;;;;;;0.30;0.10;;;21.10;1.00;;;;;;5038617;28;20456;-78
2022/10/22 12:31:51;;;;;;;0.40;0.20;;;21.00;99.90;;;;;;5036300;28;20486;-76
2022/10/22 12:34:23;;;;;;;1.03;0.20;;;20.90;51.50;;;;;;5038438;28;20449;-79
2022/10/22 12:36:52;;;;;;;0.40;0.20;;;21.00;99.90;;;;;;5021383;28;20488;-79
2022/10/22 12:39:22;;;;;;;0.70;0.20;;;20.90;99.90;;;;;;5039391;28;20448;-80
2022/10/22 12:41:50;;;;;;;0.30;0.20;;;20.60;96.70;;;;;;5038667;28;20488;-80
2022/10/22 12:44:24;;;;;;;0.97;0.40;;;20.60;1.00;;;;;;5038382;28;20448;-80
2022/10/22 12:46:52;;;;;;;0.40;0.20;;;20.60;99.90;;;;;;5037492;28;20734;-81
2022/10/22 12:49:22;;;;;;;0.47;0.20;;;20.60;1.00;;;;;;5036383;28;20449;-78
2022/10/22 12:51:50;;;;;;;0.30;0.10;;;20.60;1.00;;;;;;5035843;28;20448;-79
2022/10/22 12:54:26;;;;;;;0.50;0.20;;;20.50;1.00;;;;;;5036114;28;20472;-78
2022/10/22 12:56:54;;;;;;;0.30;0.10;;;20.40;1.00;;;;;;5032857;28;20452;-79
2022/10/22 12:59:25;;;;;;;0.57;0.20;;;20.40;99.90;;;;;;5036669;28;20456;-79
2022/10/22 13:01:53;;;;;;;0.50;0.20;;;20.40;99.90;;;;;;5033006;28;20484;-79
2022/10/22 13:04:31;;;;;;;0.60;0.20;;;20.50;99.90;;;;;;5035548;28;20838;-79
2022/10/22 13:07:16;;;;;;;0.60;0.20;;;20.50;99.90;;;;;;5034971;28;20492;-79